TimePST,TemperatureF,Dew PointF,Humidity,Sea Level PressureIn,VisibilityMPH,Wind Direction,Wind SpeedMPH,Gust SpeedMPH,PrecipitationIn,Events,Conditions,WindDirDegrees,DateUTC
12:52 AM,48.9,32.0,52,30.13,10.0,NW,3.5,-,N/A,,Clear,320,2013-12-17 08:52:00
1:52 AM,46.9,32.0,56,30.13,10.0,North,3.5,-,N/A,,Clear,350,2013-12-17 09:52:00
2:52 AM,46.0,30.9,56,30.13,10.0,NNW,4.6,-,N/A,,Clear,330,2013-12-17 10:52:00
3:52 AM,44.1,30.9,60,30.12,10.0,NNW,3.5,-,N/A,,Clear,340,2013-12-17 11:52:00
4:52 AM,48.0,30.0,50,30.12,10.0,Calm,Calm,-,N/A,,Clear,0,2013-12-17 12:52:00
5:52 AM,45.0,30.9,58,30.13,10.0,NNW,3.5,-,N/A,,Clear,330,2013-12-17 13:52:00
6:52 AM,43.0,30.9,62,30.15,10.0,Calm,Calm,-,N/A,,Clear,0,2013-12-17 14:52:00
7:52 AM,48.9,33.1,54,30.17,10.0,Calm,Calm,-,N/A,,Clear,0,2013-12-17 15:52:00
8:52 AM,59.0,34.0,39,30.18,10.0,Calm,Calm,-,N/A,,Clear,0,2013-12-17 16:52:00
9:52 AM,64.9,34.0,32,30.18,10.0,Calm,Calm,-,N/A,,Clear,0,2013-12-17 17:52:00
10:52 AM,70.0,34.0,27,30.15,10.0,Calm,Calm,-,N/A,,Clear,0,2013-12-17 18:52:00
11:52 AM,70.0,37.0,30,30.12,10.0,Calm,Calm,-,N/A,,Clear,0,2013-12-17 19:52:00
12:52 PM,75.9,28.9,18,30.08,10.0,Calm,Calm,-,N/A,,Clear,0,2013-12-17 20:52:00
1:52 PM,78.1,35.1,21,30.05,10.0,Calm,Calm,-,N/A,,Clear,0,2013-12-17 21:52:00
2:52 PM,75.9,30.9,19,30.05,10.0,SE,4.6,-,N/A,,Clear,130,2013-12-17 22:52:00
3:52 PM,72.0,30.0,21,30.04,10.0,South,3.5,-,N/A,,Clear,170,2013-12-17 23:52:00
4:52 PM,62.1,30.9,31,30.04,10.0,Calm,Calm,-,N/A,,Clear,0,2013-12-18 00:52:00
5:52 PM,55.0,32.0,42,30.04,10.0,Calm,Calm,-,N/A,,Clear,0,2013-12-18 01:52:00
6:52 PM,55.9,35.1,45,30.04,10.0,North,4.6,-,N/A,,Clear,350,2013-12-18 02:52:00
7:52 PM,55.0,35.1,47,30.04,10.0,Calm,Calm,-,N/A,,Clear,0,2013-12-18 03:52:00
8:52 PM,52.0,36.0,54,30.05,10.0,NW,3.5,-,N/A,,Clear,320,2013-12-18 04:52:00
9:52 PM,54.0,37.0,53,30.04,10.0,North,3.5,-,N/A,,Clear,360,2013-12-18 05:52:00
10:52 PM,53.1,36.0,52,30.03,10.0,Calm,Calm,-,N/A,,Clear,0,2013-12-18 06:52:00
11:52 PM,51.1,36.0,56,30.01,10.0,NW,3.5,-,N/A,,Clear,320,2013-12-18 07:52:00